Back to Top

Language: 

My Weather Underground Personal Weather Station Historical Data with Graphs...

Delerius Weather Station Historical Data
Daily Summary for April 28, 2017 Units:  Metric    English   Both
« Previous Day
Next Day »
Daily Weekly Monthly Yearly Custom
  High: Low: Average:
Temperature: 13.7 °C 3.7 °C 9.3 °C
Dew Point: 6.7 °C 2.7 °C 4.7 °C
Humidity: 95 % 50 % 75 %
Wind Speed: 9.7 km/h 0 km/h 3.1 km/h
Wind Gust: 22.5 km/h - -
Wind:- - WSW
Pressure: 1017.5 hPa 1014.8 hPa -
Precipitation: 0 mm    
Historical Graphs
 
 
Tabular Data for April 28, 2017
Time Temperature Dew Point Pressure Wind Wind Speed Wind Gust Humidity Rainfall Rate (Hourly) solar Conditions
00:02 7 °C 6.3 °C 1017.2 hPa Calm   3.2 km/h 95 % 0.25 mm 0 W/m2
00:07 7 °C 6.3 °C 1017.2 hPa Calm   3.2 km/h 95 % 0.25 mm 0 W/m2
00:12 7 °C 6.3 °C 1017.2 hPa Calm   1.6 km/h 95 % 0 mm 0 W/m2
00:17 6.9 °C 6.2 °C 1017.2 hPa Calm   1.6 km/h 95 % 0 mm 0 W/m2
00:22 6.9 °C 6.2 °C 1017.2 hPa Calm   1.6 km/h 95 % 0 mm 0 W/m2
00:27 6.9 °C 6.2 °C 1017.5 hPa Calm   1.6 km/h 95 % 0 mm 0 W/m2
00:32 6.8 °C 6.1 °C 1017.5 hPa Calm   1.6 km/h 95 % 0 mm 0 W/m2
00:37 6.8 °C 6.1 °C 1017.5 hPa Calm   3.2 km/h 95 % 0 mm 0 W/m2
00:42 6.8 °C 6.1 °C 1017.5 hPa Calm   3.2 km/h 95 % 0 mm 0 W/m2
00:47 6.7 °C 5.9 °C 1017.2 hPa Calm   3.2 km/h 95 % 0 mm 0 W/m2
00:52 6.7 °C 5.9 °C 1017.5 hPa NNW 1.6 km/h 4.8 km/h 95 % 0 mm 0 W/m2
00:57 6.7 °C 5.9 °C 1017.5 hPa NNW 1.6 km/h 8 km/h 95 % 0 mm 0 W/m2
01:02 6.6 °C 5.8 °C 1017.5 hPa NNW 1.6 km/h 8 km/h 95 % 0 mm 0 W/m2
01:07 6.6 °C 5.8 °C 1017.5 hPa NNW 1.6 km/h 9.7 km/h 95 % 0 mm 0 W/m2
01:12 6.5 °C 5.6 °C 1017.5 hPa North 1.6 km/h 9.7 km/h 94 % 0 mm 0 W/m2
01:17 6.4 °C 5.5 °C 1017.2 hPa North 3.2 km/h 9.7 km/h 94 % 0 mm 0 W/m2
01:22 6.4 °C 5.5 °C 1017.2 hPa North 1.6 km/h 9.7 km/h 94 % 0 mm 0 W/m2
01:27 6.4 °C 5.5 °C 1017.2 hPa Calm   6.4 km/h 94 % 0 mm 0 W/m2
01:32 6.4 °C 5.5 °C 1017.2 hPa Calm   4.8 km/h 94 % 0 mm 0 W/m2
01:37 6.4 °C 5.5 °C 1017.2 hPa Calm   3.2 km/h 94 % 0 mm 0 W/m2
01:42 6.4 °C 5.5 °C 1017.2 hPa North 1.6 km/h 3.2 km/h 94 % 0 mm 0 W/m2
01:46 6.4 °C 5.5 °C 1017.2 hPa North 1.6 km/h 3.2 km/h 94 % 0 mm 0 W/m2
01:51 6.4 °C 5.5 °C 1017.2 hPa Calm   3.2 km/h 94 % 0 mm 0 W/m2
01:56 6.3 °C 5.4 °C 1017.2 hPa Calm   1.6 km/h 94 % 0 mm 0 W/m2
02:01 6.3 °C 5.4 °C 1017.2 hPa Calm   1.6 km/h 94 % 0 mm 0 W/m2
02:06 6.3 °C 5.4 °C 1017.2 hPa Calm   1.6 km/h 94 % 0 mm 0 W/m2
02:11 6.3 °C 5.4 °C 1016.8 hPa Calm   1.6 km/h 94 % 0 mm 0 W/m2
02:16 6.3 °C 5.4 °C 1016.8 hPa Calm   1.6 km/h 94 % 0 mm 0 W/m2
02:21 6.3 °C 5.4 °C 1016.8 hPa Calm   3.2 km/h 94 % 0 mm 0 W/m2
02:26 6.3 °C 5.4 °C 1016.8 hPa Calm   3.2 km/h 94 % 0 mm 0 W/m2
02:31 6.3 °C 5.4 °C 1016.8 hPa Calm   1.6 km/h 94 % 0 mm 0 W/m2
02:36 6.3 °C 5.4 °C 1016.8 hPa Calm     94 % 0 mm 0 W/m2
02:41 6.2 °C 5.3 °C 1016.8 hPa Calm     94 % 0 mm 0 W/m2
02:46 6.2 °C 5.3 °C 1016.8 hPa Calm     94 % 0 mm 0 W/m2
02:51 6.2 °C 5.3 °C 1016.8 hPa Calm   3.2 km/h 94 % 0 mm 0 W/m2
02:56 6.2 °C 5.3 °C 1016.8 hPa Calm   3.2 km/h 94 % 0 mm 0 W/m2
03:01 6.1 °C 5.2 °C 1016.8 hPa Calm     94 % 0 mm 0 W/m2
03:06 6.1 °C 5.2 °C 1016.8 hPa Calm     94 % 0 mm 0 W/m2
03:11 6.1 °C 5.2 °C 1016.8 hPa Calm   1.6 km/h 94 % 0 mm 0 W/m2
03:16 6.1 °C 5.2 °C 1016.5 hPa Calm   1.6 km/h 94 % 0 mm 0 W/m2
03:21 6.1 °C 5.2 °C 1016.5 hPa Calm   4.8 km/h 94 % 0 mm 0 W/m2
03:26 6 °C 5.1 °C 1016.8 hPa NNW 1.6 km/h 4.8 km/h 94 % 0 mm 0 W/m2
03:31 6 °C 5.1 °C 1016.8 hPa NNW 1.6 km/h 4.8 km/h 94 % 0 mm 0 W/m2
03:36 6 °C 5.1 °C 1016.8 hPa NNW 1.6 km/h 3.2 km/h 94 % 0 mm 0 W/m2
03:41 6 °C 5.1 °C 1016.8 hPa Calm   3.2 km/h 94 % 0 mm 0 W/m2
03:46 5.9 °C 5 °C 1016.8 hPa NNW 1.6 km/h 4.8 km/h 94 % 0 mm 0 W/m2
03:51 5.9 °C 5 °C 1016.8 hPa NW 1.6 km/h 9.7 km/h 94 % 0 mm 0 W/m2
03:56 5.9 °C 5 °C 1016.8 hPa NW 3.2 km/h 9.7 km/h 94 % 0 mm 0 W/m2
04:02 5.9 °C 5 °C 1016.8 hPa NW 1.6 km/h 8 km/h 94 % 0 mm 0 W/m2
04:07 5.8 °C 4.9 °C 1016.5 hPa NW 1.6 km/h 4.8 km/h 94 % 0 mm 0 W/m2
04:12 5.8 °C 4.9 °C 1016.5 hPa NW 1.6 km/h 6.4 km/h 94 % 0 mm 0 W/m2
04:17 5.8 °C 4.9 °C 1016.5 hPa NW 1.6 km/h 6.4 km/h 94 % 0 mm 0 W/m2
04:22 5.7 °C 4.8 °C 1016.5 hPa NW 1.6 km/h 6.4 km/h 94 % 0 mm 0 W/m2
04:27 5.7 °C 4.8 °C 1016.5 hPa NW 1.6 km/h 6.4 km/h 94 % 0 mm 0 W/m2
04:32 5.6 °C 4.6 °C 1016.5 hPa NNW 1.6 km/h 9.7 km/h 93 % 0 mm 0 W/m2
04:37 5.5 °C 4.4 °C 1016.5 hPa NNW 3.2 km/h 9.7 km/h 93 % 0 mm 0 W/m2
04:42 5.3 °C 4.3 °C 1016.5 hPa North 1.6 km/h 9.7 km/h 93 % 0 mm 0 W/m2
04:47 5.3 °C 4.3 °C 1016.5 hPa North 3.2 km/h 9.7 km/h 93 % 0 mm 0 W/m2
04:52 5.2 °C 4 °C 1016.8 hPa NNW 1.6 km/h 9.7 km/h 92 % 0 mm 0 W/m2
04:57 5.1 °C 3.9 °C 1016.8 hPa NNW 1.6 km/h 8 km/h 92 % 0 mm 0 W/m2
05:02 5.1 °C 3.9 °C 1016.8 hPa NNW 1.6 km/h 6.4 km/h 92 % 0 mm 0 W/m2
05:07 4.9 °C 3.7 °C 1016.8 hPa NNW 1.6 km/h 6.4 km/h 92 % 0 mm 0 W/m2
05:12 4.8 °C 3.6 °C 1016.8 hPa NNW 3.2 km/h 8 km/h 92 % 0 mm 0 W/m2
05:17 4.7 °C 3.5 °C 1016.8 hPa NNW 3.2 km/h 8 km/h 92 % 0 mm 0 W/m2
05:22 4.6 °C 3.4 °C 1016.8 hPa NNW 3.2 km/h 6.4 km/h 92 % 0 mm 0 W/m2
05:27 4.5 °C 3.3 °C 1016.5 hPa NNW 3.2 km/h 8 km/h 92 % 0 mm 0 W/m2
05:32 4.4 °C 3.2 °C 1016.5 hPa NNW 3.2 km/h 8 km/h 92 % 0 mm 0 W/m2
05:37 4.3 °C 3.1 °C 1016.5 hPa NNW 3.2 km/h 8 km/h 92 % 0 mm 5 W/m2
05:42 4.2 °C 3 °C 1016.5 hPa NNW 3.2 km/h 8 km/h 92 % 0 mm 7 W/m2
05:47 4.1 °C 2.9 °C 1016.5 hPa NNW 3.2 km/h 8 km/h 92 % 0 mm 9 W/m2
05:52 4.1 °C 2.9 °C 1016.8 hPa NNW 1.6 km/h 4.8 km/h 92 % 0 mm 11 W/m2
05:57 3.9 °C 2.7 °C 1016.8 hPa NNW 1.6 km/h 6.4 km/h 92 % 0 mm 12 W/m2
06:02 3.9 °C 2.7 °C 1016.8 hPa NNW 3.2 km/h 8 km/h 92 % 0 mm 12 W/m2
06:07 3.8 °C 2.8 °C 1016.8 hPa NNW 3.2 km/h 8 km/h 93 % 0 mm 16 W/m2
06:12 3.8 °C 2.8 °C 1016.8 hPa NNW 1.6 km/h 6.4 km/h 93 % 0 mm 18 W/m2
06:17 3.8 °C 2.8 °C 1016.8 hPa NNW 1.6 km/h 6.4 km/h 93 % 0 mm 19 W/m2
06:22 3.8 °C 2.8 °C 1016.8 hPa NNW 1.6 km/h 6.4 km/h 93 % 0 mm 53 W/m2
06:27 3.7 °C 2.7 °C 1016.8 hPa NNW 1.6 km/h 4.8 km/h 93 % 0 mm 53 W/m2
06:32 3.7 °C 2.7 °C 1017.2 hPa Calm   3.2 km/h 93 % 0 mm 104 W/m2
06:37 3.8 °C 2.9 °C 1016.8 hPa Calm   1.6 km/h 94 % 0 mm 114 W/m2
06:42 4.1 °C 3.2 °C 1016.8 hPa Calm   3.2 km/h 94 % 0 mm 49 W/m2
06:47 4.3 °C 3.4 °C 1016.8 hPa NNW 1.6 km/h 4.8 km/h 94 % 0 mm 26 W/m2
06:52 4.3 °C 3.4 °C 1017.2 hPa NW 1.6 km/h 6.4 km/h 94 % 0 mm 60 W/m2
06:57 4.2 °C 3.2 °C 1016.8 hPa NW 1.6 km/h 6.4 km/h 93 % 0 mm 69 W/m2
07:02 4.2 °C 3.2 °C 1016.8 hPa NW 1.6 km/h 4.8 km/h 93 % 0 mm 83 W/m2
07:07 4.3 °C 3.4 °C 1017.2 hPa NW 1.6 km/h 8 km/h 94 % 0 mm 156 W/m2
07:12 4.6 °C 3.7 °C 1017.2 hPa NW 1.6 km/h 8 km/h 94 % 0 mm 206 W/m2
07:14 4.7 °C 3.9 °C 1017.2 hPa NW 1.6 km/h 8 km/h 95 % 0 mm 209 W/m2
07:19 5.1 °C 4.4 °C 1017.2 hPa NW 1.6 km/h 6.4 km/h 95 % 0 mm 221 W/m2
07:24 5.4 °C 4.5 °C 1017.2 hPa NW 1.6 km/h 8 km/h 94 % 0 mm 236 W/m2
07:25 5.5 °C 4.6 °C 1017.2 hPa NW 1.6 km/h 8 km/h 94 % 0 mm 239 W/m2
07:30 5.9 °C 5 °C 1017.2 hPa NW 3.2 km/h 8 km/h 94 % 0 mm 243 W/m2
07:31 5.9 °C 5 °C 1017.2 hPa NW 3.2 km/h 8 km/h 94 % 0 mm 244 W/m2
07:36 6.3 °C 5.3 °C 1017.2 hPa NW 3.2 km/h 8 km/h 93 % 0 mm 257 W/m2
07:41 6.8 °C 5.4 °C 1017.2 hPa NW 1.6 km/h 8 km/h 91 % 0 mm 276 W/m2
07:46 6.9 °C 5.2 °C 1017.2 hPa NW 3.2 km/h 9.7 km/h 89 % 0 mm 290 W/m2
07:51 7 °C 5 °C 1017.2 hPa NW 4.8 km/h 12.9 km/h 87 % 0 mm 316 W/m2
07:56 7.3 °C 5.3 °C 1017.2 hPa NW 4.8 km/h 12.9 km/h 87 % 0 mm 322 W/m2
08:01 7.7 °C 5.2 °C 1017.2 hPa NNW 3.2 km/h 12.9 km/h 84 % 0 mm 343 W/m2
08:06 8.2 °C 5.7 °C 1017.2 hPa NW 3.2 km/h 12.9 km/h 84 % 0 mm 374 W/m2
08:11 8.6 °C 5.5 °C 1017.2 hPa NW 3.2 km/h 14.5 km/h 81 % 0 mm 401 W/m2
08:16 8.8 °C 4.8 °C 1017.2 hPa NNW 6.4 km/h 17.7 km/h 76 % 0 mm 464 W/m2
08:21 9 °C 5 °C 1017.2 hPa NNW 8 km/h 17.7 km/h 76 % 0 mm 513 W/m2
08:26 9.2 °C 5.2 °C 1017.2 hPa NNW 6.4 km/h 17.7 km/h 76 % 0 mm 536 W/m2
08:31 9.1 °C 4.5 °C 1017.2 hPa North 8 km/h 16.1 km/h 73 % 0 mm 304 W/m2
08:41 9.1 °C 4.5 °C 1017.2 hPa NNW 8 km/h 17.7 km/h 73 % 0 mm 457 W/m2
08:46 9.2 °C 4.4 °C 1017.2 hPa NNW 8 km/h 17.7 km/h 72 % 0 mm 466 W/m2
08:51 9.4 °C 4.4 °C 1017.2 hPa NNW 8 km/h 16.1 km/h 71 % 0 mm 513 W/m2
08:56 9.4 °C 4.2 °C 1017.2 hPa NNE 8 km/h 16.1 km/h 70 % 0 mm 504 W/m2
09:01 9.5 °C 4.5 °C 1017.2 hPa NE 6.4 km/h 16.1 km/h 71 % 0 mm 540 W/m2
09:06 9.7 °C 4.3 °C 1017.2 hPa NNE 4.8 km/h 14.5 km/h 69 % 0 mm 578 W/m2
09:11 9.5 °C 3.9 °C 1017.2 hPa NNE 8 km/h 17.7 km/h 68 % 0 mm 626 W/m2
09:16 9.5 °C 4.1 °C 1017.2 hPa NNE 9.7 km/h 17.7 km/h 69 % 0 mm 489 W/m2
09:21 9.7 °C 4.5 °C 1017.2 hPa NNE 8 km/h 17.7 km/h 70 % 0 mm 473 W/m2
09:26 9.8 °C 4.2 °C 1017.2 hPa NNE 6.4 km/h 12.9 km/h 68 % 0 mm 659 W/m2
09:31 9.9 °C 4.3 °C 1017.2 hPa NNE 8 km/h 17.7 km/h 68 % 0 mm 540 W/m2
09:37 9.9 °C 4.1 °C 1017.2 hPa NNE 8 km/h 17.7 km/h 67 % 0 mm 360 W/m2
09:42 9.7 °C 3.9 °C 1017.2 hPa NNE 8 km/h 16.1 km/h 67 % 0 mm 301 W/m2
09:47 9.6 °C 3.8 °C 1017.2 hPa NE 6.4 km/h 14.5 km/h 67 % 0 mm 543 W/m2
09:52 9.5 °C 3.2 °C 1016.8 hPa NNE 8 km/h 14.5 km/h 65 % 0 mm 262 W/m2
09:57 9.4 °C 3.4 °C 1016.8 hPa NE 6.4 km/h 14.5 km/h 66 % 0 mm 673 W/m2
10:02 9.7 °C 4.1 °C 1016.8 hPa NE 6.4 km/h 12.9 km/h 68 % 0 mm 664 W/m2
10:07 9.8 °C 3.5 °C 1016.8 hPa NE 6.4 km/h 12.9 km/h 65 % 0 mm 705 W/m2
10:12 10.1 °C 4.1 °C 1016.8 hPa NE 6.4 km/h 17.7 km/h 66 % 0 mm 733 W/m2
10:17 10.3 °C 3.3 °C 1016.8 hPa NNE 8 km/h 17.7 km/h 62 % 0 mm 733 W/m2
10:22 10.4 °C 3.7 °C 1016.8 hPa North 6.4 km/h 17.7 km/h 63 % 0 mm 714 W/m2
10:27 10.4 °C 2.7 °C 1016.8 hPa NNE 8 km/h 16.1 km/h 59 % 0 mm 708 W/m2
10:32 10.5 °C 3.3 °C 1016.8 hPa NNE 8 km/h 17.7 km/h 61 % 0 mm 837 W/m2
10:37 10.7 °C 3.7 °C 1016.8 hPa NNE 8 km/h 22.5 km/h 62 % 0 mm 976 W/m2
10:42 10.6 °C 3.2 °C 1016.8 hPa NNE 8 km/h 22.5 km/h 60 % 0 mm 301 W/m2
10:47 10.4 °C 3.2 °C 1016.8 hPa NNE 6.4 km/h 14.5 km/h 61 % 0 mm 438 W/m2
10:52 10.3 °C 3.1 °C 1016.5 hPa NNE 8 km/h 16.1 km/h 61 % 0 mm 1025 W/m2
10:57 10.5 °C 3.9 °C 1016.8 hPa NNE 6.4 km/h 16.1 km/h 64 % 0 mm 1005 W/m2
11:02 10.6 °C 3.4 °C 1016.5 hPa NE 6.4 km/h 12.9 km/h 61 % 0 mm 283 W/m2
11:07 10.5 °C 3.7 °C 1016.5 hPa NNE 6.4 km/h 16.1 km/h 63 % 0 mm 320 W/m2
11:12 10.9 °C 4.1 °C 1016.5 hPa North 8 km/h 16.1 km/h 63 % 0 mm 719 W/m2
11:14 11 °C 4 °C 1016.5 hPa North 8 km/h 16.1 km/h 62 % 0 mm 299 W/m2
11:19 11.1 °C 3.6 °C 1016.8 hPa North 8 km/h 14.5 km/h 60 % 0 mm 399 W/m2
11:24 11.3 °C 3.8 °C 1016.8 hPa NNW 8 km/h 14.5 km/h 60 % 0 mm 759 W/m2
11:29 11.2 °C 3.2 °C 1016.5 hPa NNW 6.4 km/h 14.5 km/h 58 % 0 mm 452 W/m2
11:34 11.3 °C 3.6 °C 1016.5 hPa NNW 6.4 km/h 16.1 km/h 59 % 0 mm 468 W/m2
11:39 11.3 °C 3.6 °C 1016.5 hPa North 6.4 km/h 16.1 km/h 59 % 0 mm 320 W/m2
11:44 11.1 °C 3.2 °C 1016.5 hPa North 6.4 km/h 19.3 km/h 58 % 0 mm 330 W/m2
11:49 10.9 °C 3.2 °C 1016.5 hPa NNW 8 km/h 19.3 km/h 59 % 0 mm 329 W/m2
11:54 11.1 °C 3.6 °C 1016.5 hPa NW 8 km/h 19.3 km/h 60 % 0 mm 343 W/m2
11:59 11.1 °C 3.2 °C 1016.5 hPa NNW 8 km/h 19.3 km/h 58 % 0 mm 378 W/m2
12:04 11 °C 3.5 °C 1016.5 hPa North 9.7 km/h 17.7 km/h 60 % 0 mm 492 W/m2
12:09 11.2 °C 3.5 °C 1016.5 hPa North 9.7 km/h 16.1 km/h 59 % 0 mm 902 W/m2
12:14 11.6 °C 3.6 °C 1016.1 hPa North 6.4 km/h 14.5 km/h 58 % 0 mm 981 W/m2
12:19 12 °C 4 °C 1016.1 hPa NNW 6.4 km/h 20.9 km/h 58 % 0 mm 1083 W/m2
12:24 11.9 °C 3.7 °C 1016.1 hPa North 8 km/h 20.9 km/h 57 % 0 mm 504 W/m2
12:29 11.9 °C 3.9 °C 1016.1 hPa NNE 4.8 km/h 14.5 km/h 58 % 0 mm 494 W/m2
12:34 12.1 °C 3.8 °C 1016.1 hPa NE 3.2 km/h 14.5 km/h 57 % 0 mm 471 W/m2
12:39 11.9 °C 3.4 °C 1016.1 hPa North 6.4 km/h 16.1 km/h 56 % 0 mm 371 W/m2
12:44 11.7 °C 3.2 °C 1016.1 hPa North 9.7 km/h 17.7 km/h 56 % 0 mm 320 W/m2
12:49 11.6 °C 3.4 °C 1016.1 hPa North 8 km/h 17.7 km/h 57 % 0 mm 1065 W/m2
12:54 11.8 °C 4.1 °C 1015.8 hPa NNE 6.4 km/h 14.5 km/h 59 % 0 mm 895 W/m2
12:59 12.1 °C 3.8 °C 1015.8 hPa NNE 4.8 km/h 11.3 km/h 57 % 0 mm 884 W/m2
13:04 12.3 °C 3.8 °C 1015.8 hPa NE 4.8 km/h 12.9 km/h 56 % 0 mm 904 W/m2
13:09 12.6 °C 3.8 °C 1015.8 hPa North 6.4 km/h 14.5 km/h 55 % 0 mm 137 W/m2
13:14 12.6 °C 3.6 °C 1015.8 hPa NNW 8 km/h 19.3 km/h 54 % 0 mm 1021 W/m2
13:19 12.9 °C 3.8 °C 1015.8 hPa NNW 8 km/h 19.3 km/h 54 % 0 mm 977 W/m2
13:24 13 °C 3.4 °C 1015.8 hPa NW 4.8 km/h 19.3 km/h 52 % 0 mm 1051 W/m2
13:30 13.2 °C 4.1 °C 1015.8 hPa North 1.6 km/h 8 km/h 54 % 0 mm 1062 W/m2
13:35 13.6 °C 4.2 °C 1015.8 hPa North 3.2 km/h 12.9 km/h 53 % 0 mm 490 W/m2
13:40 13.7 °C 3.7 °C 1015.8 hPa North 4.8 km/h 12.9 km/h 51 % 0 mm 341 W/m2
13:45 13.4 °C 3.4 °C 1015.8 hPa NNE 4.8 km/h 12.9 km/h 51 % 0 mm 264 W/m2
13:50 12.9 °C 3 °C 1015.8 hPa NE 4.8 km/h 12.9 km/h 51 % 0 mm 471 W/m2
13:55 12.6 °C 3.3 °C 1015.8 hPa NNE 6.4 km/h 12.9 km/h 53 % 0 mm 315 W/m2
14:00 12.4 °C 3.3 °C 1015.8 hPa NNE 6.4 km/h 12.9 km/h 54 % 0 mm 381 W/m2
14:05 12.4 °C 3.3 °C 1015.8 hPa North 4.8 km/h 12.9 km/h 54 % 0 mm 399 W/m2
14:10 12.7 °C 3.3 °C 1015.5 hPa NNW 3.2 km/h 12.9 km/h 53 % 0 mm 359 W/m2
14:15 12.8 °C 3.4 °C 1015.5 hPa North 1.6 km/h 12.9 km/h 53 % 0 mm 359 W/m2
14:20 13.1 °C 4.3 °C 1015.5 hPa North 3.2 km/h 12.9 km/h 55 % 0 mm 598 W/m2
14:25 13.4 °C 3.4 °C 1015.5 hPa NNW 4.8 km/h 14.5 km/h 51 % 0 mm 399 W/m2
14:30 13.4 °C 3.4 °C 1015.5 hPa NNW 4.8 km/h 14.5 km/h 51 % 0 mm 408 W/m2
14:31 13.4 °C 3.7 °C 1015.5 hPa North 4.8 km/h 14.5 km/h 52 % 0 mm 411 W/m2
14:36 13.6 °C 4.2 °C 1015.5 hPa North 6.4 km/h 20.9 km/h 53 % 0 mm 541 W/m2
14:41 13.7 °C 4 °C 1015.5 hPa NW 6.4 km/h 20.9 km/h 52 % 0 mm 350 W/m2
14:46 13.7 °C 3.7 °C 1015.5 hPa WNW 3.2 km/h 11.3 km/h 51 % 0 mm 322 W/m2
14:51 13.6 °C 3.4 °C 1015.5 hPa WNW 3.2 km/h 8 km/h 50 % 0 mm 313 W/m2
14:56 13.4 °C 3.4 °C 1015.5 hPa WNW 1.6 km/h 6.4 km/h 51 % 0 mm 258 W/m2
15:01 13.4 °C 3.7 °C 1015.1 hPa WNW 1.6 km/h 8 km/h 52 % 0 mm 229 W/m2
15:06 13.3 °C 3.7 °C 1015.5 hPa West 4.8 km/h 11.3 km/h 52 % 0 mm 257 W/m2
15:11 13.2 °C 3.6 °C 1015.5 hPa West 6.4 km/h 11.3 km/h 52 % 0 mm 230 W/m2
15:16 13.1 °C 3.7 °C 1015.1 hPa West 4.8 km/h 11.3 km/h 53 % 0 mm 207 W/m2
15:21 13 °C 3.6 °C 1015.1 hPa WNW 1.6 km/h 9.7 km/h 53 % 0 mm 185 W/m2
15:26 12.8 °C 3.4 °C 1015.1 hPa WSW 3.2 km/h 9.7 km/h 53 % 0 mm 144 W/m2
15:31 12.7 °C 3.6 °C 1015.1 hPa WSW 1.6 km/h 8 km/h 54 % 0 mm 125 W/m2
15:36 12.7 °C 3.9 °C 1015.1 hPa West 3.2 km/h 11.3 km/h 55 % 0 mm 113 W/m2
15:41 12.8 °C 3.4 °C 1015.1 hPa WNW 4.8 km/h 11.3 km/h 53 % 0 mm 105 W/m2
15:46 12.7 °C 3.6 °C 1015.1 hPa WNW 3.2 km/h 11.3 km/h 54 % 0 mm 98 W/m2
15:51 12.7 °C 3.9 °C 1015.1 hPa NW 3.2 km/h 9.7 km/h 55 % 0 mm 98 W/m2
15:56 12.7 °C 3.9 °C 1015.1 hPa NW 3.2 km/h 9.7 km/h 55 % 0 mm 109 W/m2
16:01 12.6 °C 4.1 °C 1015.1 hPa NW 1.6 km/h 6.4 km/h 56 % 0 mm 111 W/m2
16:06 12.6 °C 3.8 °C 1015.1 hPa NW 1.6 km/h 4.8 km/h 55 % 0 mm 104 W/m2
16:11 12.5 °C 3.7 °C 1015.1 hPa NW 3.2 km/h 8 km/h 55 % 0 mm 81 W/m2
16:16 12.4 °C 3.6 °C 1015.1 hPa WNW 3.2 km/h 8 km/h 55 % 0 mm 70 W/m2
16:21 12.3 °C 3.5 °C 1015.1 hPa West 3.2 km/h 8 km/h 55 % 0 mm 65 W/m2
16:26 12.3 °C 3.8 °C 1015.1 hPa West 1.6 km/h 8 km/h 56 % 0 mm 72 W/m2
16:32 12.3 °C 4 °C 1015.1 hPa West 1.6 km/h 8 km/h 57 % 0 mm 76 W/m2
16:37 12.3 °C 4 °C 1015.1 hPa West 1.6 km/h 8 km/h 57 % 0 mm 84 W/m2
16:42 12.2 °C 3.9 °C 1015.1 hPa West 1.6 km/h 6.4 km/h 57 % 0 mm 84 W/m2
16:47 12.2 °C 4.2 °C 1015.1 hPa West 1.6 km/h 4.8 km/h 58 % 0 mm 70 W/m2
16:52 12.2 °C 3.9 °C 1015.1 hPa West 1.6 km/h 4.8 km/h 57 % 0 mm 49 W/m2
16:57 12.1 °C 3.8 °C 1015.1 hPa West 1.6 km/h 4.8 km/h 57 % 0 mm 42 W/m2
17:02 12.1 °C 4.1 °C 1015.1 hPa West 1.6 km/h 6.4 km/h 58 % 0 mm 47 W/m2
17:07 12 °C 4.2 °C 1015.1 hPa West 1.6 km/h 6.4 km/h 59 % 0 mm 53 W/m2
17:12 12 °C 4.4 °C 1015.1 hPa West 1.6 km/h 6.4 km/h 60 % 0 mm 65 W/m2
17:17 12.1 °C 4.8 °C 1015.1 hPa West 3.2 km/h 9.7 km/h 61 % 0 mm 76 W/m2
17:22 12.1 °C 4.8 °C 1015.1 hPa West 3.2 km/h 9.7 km/h 61 % 0 mm 81 W/m2
17:27 12.1 °C 4.8 °C 1015.1 hPa WNW 3.2 km/h 9.7 km/h 61 % 0 mm 88 W/m2
17:32 12.1 °C 4.8 °C 1015.1 hPa West 3.2 km/h 9.7 km/h 61 % 0 mm 90 W/m2
17:37 12.1 °C 4.8 °C 1015.1 hPa West 3.2 km/h 9.7 km/h 61 % 0 mm 83 W/m2
17:42 12.1 °C 4.8 °C 1015.1 hPa West 3.2 km/h 11.3 km/h 61 % 0 mm 79 W/m2
17:45 12.1 °C 4.8 °C 1015.1 hPa WNW 4.8 km/h 11.3 km/h 61 % 0 mm 77 W/m2
17:50 12.1 °C 5.1 °C 1015.1 hPa WNW 4.8 km/h 11.3 km/h 62 % 0 mm 77 W/m2
17:52 12.1 °C 5.1 °C 1015.1 hPa WNW 4.8 km/h 11.3 km/h 62 % 0 mm 74 W/m2
17:57 12.1 °C 5.1 °C 1015.1 hPa WNW 3.2 km/h 8 km/h 62 % 0 mm 69 W/m2
18:02 12.1 °C 5.3 °C 1015.1 hPa WNW 3.2 km/h 8 km/h 63 % 0 mm 62 W/m2
18:07 12 °C 5.2 °C 1015.1 hPa West 3.2 km/h 8 km/h 63 % 0 mm 58 W/m2
18:12 12 °C 5.2 °C 1015.1 hPa West 3.2 km/h 8 km/h 63 % 0 mm 54 W/m2
18:17 12 °C 5.2 °C 1015.1 hPa West 1.6 km/h 8 km/h 63 % 0 mm 51 W/m2
18:22 12 °C 5.4 °C 1015.1 hPa West 1.6 km/h 6.4 km/h 64 % 0 mm 46 W/m2
18:27 12 °C 5.4 °C 1015.1 hPa Calm   3.2 km/h 64 % 0 mm 37 W/m2
18:32 12 °C 5.6 °C 1015.1 hPa West 1.6 km/h 6.4 km/h 65 % 0 mm 26 W/m2
18:37 11.9 °C 5.5 °C 1015.1 hPa West 1.6 km/h 8 km/h 65 % 0 mm 28 W/m2
18:42 11.9 °C 5.3 °C 1015.1 hPa WNW 3.2 km/h 9.7 km/h 64 % 0 mm 39 W/m2
18:47 11.8 °C 5.4 °C 1014.8 hPa NW 3.2 km/h 9.7 km/h 65 % 0 mm 44 W/m2
18:52 11.8 °C 5.7 °C 1015.1 hPa NW 3.2 km/h 9.7 km/h 66 % 0 mm 42 W/m2
18:57 11.7 °C 5.6 °C 1014.8 hPa NW 1.6 km/h 9.7 km/h 66 % 0 mm 39 W/m2
19:02 11.7 °C 5.6 °C 1015.1 hPa NW 3.2 km/h 9.7 km/h 66 % 0 mm 37 W/m2
19:07 11.6 °C 5.4 °C 1015.1 hPa WNW 3.2 km/h 11.3 km/h 66 % 0 mm 32 W/m2
19:12 11.6 °C 5.7 °C 1015.1 hPa WNW 4.8 km/h 11.3 km/h 67 % 0 mm 28 W/m2
19:17 11.5 °C 5.4 °C 1015.1 hPa WNW 6.4 km/h 11.3 km/h 66 % 0 mm 26 W/m2
19:22 11.4 °C 5.5 °C 1015.1 hPa WNW 6.4 km/h 11.3 km/h 67 % 0 mm 28 W/m2
19:27 11.3 °C 5.4 °C 1015.1 hPa WNW 4.8 km/h 9.7 km/h 67 % 0 mm 30 W/m2
19:32 11.3 °C 5.6 °C 1015.1 hPa WNW 3.2 km/h 9.7 km/h 68 % 0 mm 26 W/m2
19:37 11.3 °C 5.6 °C 1015.1 hPa WNW 3.2 km/h 9.7 km/h 68 % 0 mm 21 W/m2
19:42 11.2 °C 5.5 °C 1014.8 hPa WNW 1.6 km/h 9.7 km/h 68 % 0 mm 16 W/m2
19:47 11.2 °C 5.7 °C 1014.8 hPa NW 1.6 km/h 6.4 km/h 69 % 0 mm 14 W/m2
19:52 11.1 °C 5.6 °C 1015.1 hPa NW 1.6 km/h 6.4 km/h 69 % 0 mm 12 W/m2
19:57 11.1 °C 5.6 °C 1015.1 hPa NW 1.6 km/h 6.4 km/h 69 % 0 mm 11 W/m2
20:02 11 °C 5.7 °C 1015.1 hPa NW 1.6 km/h 8 km/h 70 % 0 mm 11 W/m2
20:07 10.9 °C 5.7 °C 1014.8 hPa WNW 1.6 km/h 8 km/h 70 % 0 mm 9 W/m2
20:12 10.9 °C 5.7 °C 1015.1 hPa WNW 3.2 km/h 8 km/h 70 % 0 mm 7 W/m2
20:17 10.8 °C 5.6 °C 1015.1 hPa WNW 1.6 km/h 8 km/h 70 % 0 mm 5 W/m2
20:22 10.8 °C 5.7 °C 1015.1 hPa WNW 1.6 km/h 3.2 km/h 71 % 0 mm 0 W/m2
20:27 10.7 °C 5.7 °C 1014.8 hPa Calm   3.2 km/h 71 % 0 mm 0 W/m2
20:32 10.7 °C 5.7 °C 1014.8 hPa Calm   3.2 km/h 71 % 0 mm 0 W/m2
20:37 10.6 °C 5.6 °C 1015.1 hPa Calm   1.6 km/h 71 % 0 mm 0 W/m2
20:42 10.6 °C 5.8 °C 1015.1 hPa Calm     72 % 0 mm 0 W/m2
20:47 10.5 °C 5.7 °C 1015.1 hPa Calm     72 % 0 mm 0 W/m2
20:52 10.5 °C 5.7 °C 1015.1 hPa Calm     72 % 0 mm 0 W/m2
20:57 10.4 °C 5.8 °C 1015.1 hPa Calm     73 % 0 mm 0 W/m2
21:02 10.4 °C 5.8 °C 1015.1 hPa Calm     73 % 0 mm 0 W/m2
21:07 10.3 °C 5.9 °C 1015.1 hPa Calm   3.2 km/h 74 % 0 mm 0 W/m2
21:12 10.3 °C 5.9 °C 1015.1 hPa Calm   3.2 km/h 74 % 0 mm 0 W/m2
21:17 10.2 °C 5.8 °C 1015.1 hPa Calm   1.6 km/h 74 % 0 mm 0 W/m2
21:22 10.1 °C 5.9 °C 1015.1 hPa WNW 1.6 km/h 8 km/h 75 % 0 mm 0 W/m2
21:27 10.1 °C 6.1 °C 1015.5 hPa WNW 3.2 km/h 8 km/h 76 % 0 mm 0 W/m2
21:32 10 °C 5.9 °C 1015.1 hPa WNW 1.6 km/h 8 km/h 76 % 0 mm 0 W/m2
21:37 10 °C 6.2 °C 1015.5 hPa WNW 1.6 km/h 8 km/h 77 % 0 mm 0 W/m2
21:42 9.9 °C 6.1 °C 1015.5 hPa WNW 1.6 km/h 8 km/h 77 % 0 mm 0 W/m2
21:47 9.9 °C 6.1 °C 1015.5 hPa WNW 1.6 km/h 8 km/h 77 % 0 mm 0 W/m2
21:52 9.8 °C 6.2 °C 1015.5 hPa Calm   8 km/h 78 % 0 mm 0 W/m2
21:57 9.8 °C 6.2 °C 1015.5 hPa Calm   3.2 km/h 78 % 0 mm 0 W/m2
22:02 9.8 °C 6.3 °C 1015.5 hPa Calm     79 % 0 mm 0 W/m2
22:07 9.8 °C 6.3 °C 1015.5 hPa Calm   3.2 km/h 79 % 0 mm 0 W/m2
22:12 9.8 °C 6.3 °C 1015.5 hPa Calm   3.2 km/h 79 % 0 mm 0 W/m2
22:17 9.7 °C 6.4 °C 1015.5 hPa Calm   3.2 km/h 80 % 0 mm 0 W/m2
22:22 9.7 °C 6.4 °C 1015.5 hPa Calm   3.2 km/h 80 % 0 mm 0 W/m2
22:27 9.7 °C 6.4 °C 1015.5 hPa Calm   3.2 km/h 80 % 0 mm 0 W/m2
22:32 9.6 °C 6.5 °C 1015.5 hPa Calm   3.2 km/h 81 % 0 mm 0 W/m2
22:37 9.6 °C 6.5 °C 1015.5 hPa Calm   3.2 km/h 81 % 0 mm 0 W/m2
22:42 9.6 °C 6.5 °C 1015.5 hPa Calm     81 % 0 mm 0 W/m2
22:47 9.6 °C 6.5 °C 1015.5 hPa Calm   1.6 km/h 81 % 0 mm 0 W/m2
22:52 9.5 °C 6.6 °C 1015.5 hPa Calm   3.2 km/h 82 % 0 mm 0 W/m2
22:57 9.5 °C 6.6 °C 1015.5 hPa Calm   3.2 km/h 82 % 0 mm 0 W/m2
23:02 9.4 °C 6.5 °C 1015.5 hPa Calm   4.8 km/h 82 % 0 mm 0 W/m2
23:07 9.4 °C 6.7 °C 1015.5 hPa Calm   4.8 km/h 83 % 0 mm 0 W/m2
23:12 9.4 °C 6.7 °C 1015.5 hPa Calm   3.2 km/h 83 % 0 mm 0 W/m2
23:18 9.3 °C 6.6 °C 1015.5 hPa WNW 1.6 km/h 8 km/h 83 % 0 mm 0 W/m2
23:23 9.2 °C 6.4 °C 1015.5 hPa WNW 3.2 km/h 8 km/h 83 % 0 mm 0 W/m2
23:28 9.2 °C 6.4 °C 1015.5 hPa WNW 1.6 km/h 8 km/h 83 % 0 mm 0 W/m2
23:33 9.2 °C 6.4 °C 1015.5 hPa WNW 1.6 km/h 8 km/h 83 % 0 mm 0 W/m2
23:38 9.1 °C 6.4 °C 1015.5 hPa Calm   3.2 km/h 83 % 0 mm 0 W/m2
23:43 9.1 °C 6.6 °C 1015.1 hPa Calm   3.2 km/h 84 % 0 mm 0 W/m2
23:48 9.1 °C 6.6 °C 1015.1 hPa Calm   3.2 km/h 84 % 0 mm 0 W/m2
23:53 9 °C 6.4 °C 1015.1 hPa Calm   6.4 km/h 84 % 0 mm 0 W/m2
23:58 8.9 °C 6.3 °C 1015.1 hPa WNW 1.6 km/h 6.4 km/h 84 % 0 mm 0 W/m2
Delerius-Weather
Compliments of Weather Underground - 2.25 mb

Data updates at regular intervals.